sensor_id;sensor_type;location;lat;lon;timestamp;pressure;altitude;pressure_sealevel;temperature;humidity
79174;BME280;68599;49.142;9.124;2023-04-24T00:00:59;98681.75;;;10.91;70.85
79174;BME280;68599;49.142;9.124;2023-04-24T00:03:27;98674.54;;;10.96;70.91
79174;BME280;68599;49.142;9.124;2023-04-24T00:05:55;98674.58;;;11.00;70.65
79174;BME280;68599;49.142;9.124;2023-04-24T00:08:22;98677.50;;;11.04;70.88
79174;BME280;68599;49.142;9.124;2023-04-24T00:10:50;98672.13;;;11.03;71.63
79174;BME280;68599;49.142;9.124;2023-04-24T00:13:18;98665.70;;;11.02;71.53
79174;BME280;68599;49.142;9.124;2023-04-24T00:15:45;98664.91;;;10.98;71.69
79174;BME280;68599;49.142;9.124;2023-04-24T00:18:11;98666.94;;;11.02;71.06
79174;BME280;68599;49.142;9.124;2023-04-24T00:20:37;98666.77;;;10.97;71.96
79174;BME280;68599;49.142;9.124;2023-04-24T00:23:04;98664.16;;;10.99;71.73
79174;BME280;68599;49.142;9.124;2023-04-24T00:25:31;98668.36;;;10.98;72.24
79174;BME280;68599;49.142;9.124;2023-04-24T00:27:57;98670.27;;;11.00;71.99
79174;BME280;68599;49.142;9.124;2023-04-24T00:30:24;98669.14;;;10.96;72.56
79174;BME280;68599;49.142;9.124;2023-04-24T00:32:50;98672.33;;;10.92;72.86
79174;BME280;68599;49.142;9.124;2023-04-24T00:35:17;98672.49;;;10.93;72.08
79174;BME280;68599;49.142;9.124;2023-04-24T00:37:46;98680.45;;;10.92;72.04
79174;BME280;68599;49.142;9.124;2023-04-24T00:40:12;98668.38;;;10.87;73.64
79174;BME280;68599;49.142;9.124;2023-04-24T00:42:40;98667.98;;;10.93;72.97
79174;BME280;68599;49.142;9.124;2023-04-24T00:45:07;98665.69;;;10.92;73.32
79174;BME280;68599;49.142;9.124;2023-04-24T00:47:34;98668.26;;;10.90;73.58
79174;BME280;68599;49.142;9.124;2023-04-24T00:50:04;98666.87;;;10.89;74.02
79174;BME280;68599;49.142;9.124;2023-04-24T00:52:32;98666.98;;;10.85;74.10
79174;BME280;68599;49.142;9.124;2023-04-24T00:54:59;98672.02;;;10.85;73.92
79174;BME280;68599;49.142;9.124;2023-04-24T00:57:26;98673.95;;;10.87;73.89
79174;BME280;68599;49.142;9.124;2023-04-24T00:59:53;98672.64;;;10.88;74.26
79174;BME280;68599;49.142;9.124;2023-04-24T01:02:21;98663.20;;;10.91;74.17
79174;BME280;68599;49.142;9.124;2023-04-24T01:04:50;98651.65;;;10.91;74.28
79174;BME280;68599;49.142;9.124;2023-04-24T01:07:20;98652.73;;;10.91;73.92
79174;BME280;68599;49.142;9.124;2023-04-24T01:09:48;98647.17;;;10.90;73.84
79174;BME280;68599;49.142;9.124;2023-04-24T01:12:18;98646.70;;;10.88;74.01
79174;BME280;68599;49.142;9.124;2023-04-24T01:14:45;98645.85;;;10.92;73.77
79174;BME280;68599;49.142;9.124;2023-04-24T01:17:12;98649.85;;;10.96;73.41
79174;BME280;68599;49.142;9.124;2023-04-24T01:19:38;98656.12;;;10.97;73.86
79174;BME280;68599;49.142;9.124;2023-04-24T01:22:13;98652.42;;;10.89;74.60
79174;BME280;68599;49.142;9.124;2023-04-24T01:24:41;98648.24;;;10.90;74.04
79174;BME280;68599;49.142;9.124;2023-04-24T01:27:09;98645.98;;;10.88;74.87
79174;BME280;68599;49.142;9.124;2023-04-24T01:29:36;98650.70;;;10.88;74.57
79174;BME280;68599;49.142;9.124;2023-04-24T01:32:03;98645.55;;;10.85;75.34
79174;BME280;68599;49.142;9.124;2023-04-24T01:34:31;98638.61;;;10.82;74.91
79174;BME280;68599;49.142;9.124;2023-04-24T01:36:58;98633.06;;;10.81;75.17
79174;BME280;68599;49.142;9.124;2023-04-24T01:39:24;98632.30;;;10.77;75.09
79174;BME280;68599;49.142;9.124;2023-04-24T01:41:52;98640.77;;;10.71;75.19
79174;BME280;68599;49.142;9.124;2023-04-24T01:44:20;98641.55;;;10.64;74.74
79174;BME280;68599;49.142;9.124;2023-04-24T01:46:47;98642.84;;;10.58;75.52
79174;BME280;68599;49.142;9.124;2023-04-24T01:49:14;98640.52;;;10.52;76.21
79174;BME280;68599;49.142;9.124;2023-04-24T01:51:40;98635.19;;;10.50;76.70
79174;BME280;68599;49.142;9.124;2023-04-24T01:54:07;98635.88;;;10.46;77.15
79174;BME280;68599;49.142;9.124;2023-04-24T01:56:34;98631.77;;;10.44;77.09
79174;BME280;68599;49.142;9.124;2023-04-24T01:59:03;98637.05;;;10.43;76.56
79174;BME280;68599;49.142;9.124;2023-04-24T02:01:34;98631.80;;;10.38;76.83
79174;BME280;68599;49.142;9.124;2023-04-24T02:04:03;98629.11;;;10.43;76.47
79174;BME280;68599;49.142;9.124;2023-04-24T02:06:30;98626.92;;;10.44;76.40
79174;BME280;68599;49.142;9.124;2023-04-24T02:08:58;98619.73;;;10.44;76.25
79174;BME280;68599;49.142;9.124;2023-04-24T02:11:25;98620.79;;;10.44;75.90
79174;BME280;68599;49.142;9.124;2023-04-24T02:13:53;98618.39;;;10.40;76.30
79174;BME280;68599;49.142;9.124;2023-04-24T02:16:20;98617.52;;;10.45;75.67
79174;BME280;68599;49.142;9.124;2023-04-24T02:18:47;98615.77;;;10.49;76.09
79174;BME280;68599;49.142;9.124;2023-04-24T02:21:13;98618.20;;;10.52;75.60
79174;BME280;68599;49.142;9.124;2023-04-24T02:23:40;98620.56;;;10.51;75.68
79174;BME280;68599;49.142;9.124;2023-04-24T02:26:07;98621.83;;;10.51;75.52
79174;BME280;68599;49.142;9.124;2023-04-24T02:28:33;98626.73;;;10.49;76.27
79174;BME280;68599;49.142;9.124;2023-04-24T02:31:00;98621.95;;;10.52;76.20
79174;BME280;68599;49.142;9.124;2023-04-24T02:33:26;98628.67;;;10.56;76.13
79174;BME280;68599;49.142;9.124;2023-04-24T02:35:53;98627.73;;;10.57;76.30
79174;BME280;68599;49.142;9.124;2023-04-24T02:38:20;98627.33;;;10.59;76.12
79174;BME280;68599;49.142;9.124;2023-04-24T02:40:46;98634.20;;;10.58;76.40
79174;BME280;68599;49.142;9.124;2023-04-24T02:43:13;98632.54;;;10.54;76.50
79174;BME280;68599;49.142;9.124;2023-04-24T02:45:39;98626.52;;;10.50;76.78
79174;BME280;68599;49.142;9.124;2023-04-24T02:48:06;98623.16;;;10.43;76.76
79174;BME280;68599;49.142;9.124;2023-04-24T02:50:32;98619.87;;;10.39;76.80
79174;BME280;68599;49.142;9.124;2023-04-24T02:52:59;98615.37;;;10.34;77.01
79174;BME280;68599;49.142;9.124;2023-04-24T02:55:26;98621.90;;;10.27;77.09
79174;BME280;68599;49.142;9.124;2023-04-24T02:57:53;98625.87;;;10.26;76.64
79174;BME280;68599;49.142;9.124;2023-04-24T03:00:19;98625.34;;;10.31;75.91
79174;BME280;68599;49.142;9.124;2023-04-24T03:02:46;98629.39;;;10.29;76.13
79174;BME280;68599;49.142;9.124;2023-04-24T03:05:13;98632.13;;;10.28;76.21
79174;BME280;68599;49.142;9.124;2023-04-24T03:07:40;98631.31;;;10.31;76.21
79174;BME280;68599;49.142;9.124;2023-04-24T03:10:07;98625.92;;;10.30;76.35
79174;BME280;68599;49.142;9.124;2023-04-24T03:12:33;98622.77;;;10.39;76.20
79174;BME280;68599;49.142;9.124;2023-04-24T03:15:00;98622.08;;;10.44;76.04
79174;BME280;68599;49.142;9.124;2023-04-24T03:17:27;98621.45;;;10.52;75.98
79174;BME280;68599;49.142;9.124;2023-04-24T03:19:53;98615.06;;;10.48;76.26
79174;BME280;68599;49.142;9.124;2023-04-24T03:22:20;98612.51;;;10.50;76.07
79174;BME280;68599;49.142;9.124;2023-04-24T03:24:46;98617.65;;;10.52;76.05
79174;BME280;68599;49.142;9.124;2023-04-24T03:27:13;98613.08;;;10.59;75.85
79174;BME280;68599;49.142;9.124;2023-04-24T03:29:39;98605.45;;;10.61;75.68
79174;BME280;68599;49.142;9.124;2023-04-24T03:32:06;98605.45;;;10.66;75.34
79174;BME280;68599;49.142;9.124;2023-04-24T03:34:32;98605.25;;;10.67;75.23
79174;BME280;68599;49.142;9.124;2023-04-24T03:36:59;98604.57;;;10.66;75.37
79174;BME280;68599;49.142;9.124;2023-04-24T03:39:25;98606.23;;;10.70;75.47
79174;BME280;68599;49.142;9.124;2023-04-24T03:41:52;98608.67;;;10.67;75.81
79174;BME280;68599;49.142;9.124;2023-04-24T03:44:18;98609.63;;;10.71;75.53
79174;BME280;68599;49.142;9.124;2023-04-24T03:46:45;98612.23;;;10.68;76.09
79174;BME280;68599;49.142;9.124;2023-04-24T03:49:11;98613.77;;;10.71;75.59
79174;BME280;68599;49.142;9.124;2023-04-24T03:51:38;98614.83;;;10.71;75.92
79174;BME280;68599;49.142;9.124;2023-04-24T03:54:04;98615.11;;;10.79;75.40
79174;BME280;68599;49.142;9.124;2023-04-24T03:56:31;98626.45;;;10.79;75.75
79174;BME280;68599;49.142;9.124;2023-04-24T03:58:57;98639.20;;;10.86;75.08
79174;BME280;68599;49.142;9.124;2023-04-24T04:01:24;98646.73;;;10.87;74.89
79174;BME280;68599;49.142;9.124;2023-04-24T04:03:50;98655.16;;;10.88;74.73
79174;BME280;68599;49.142;9.124;2023-04-24T04:06:17;98657.06;;;10.96;73.68
79174;BME280;68599;49.142;9.124;2023-04-24T04:08:45;98664.67;;;11.00;73.04
79174;BME280;68599;49.142;9.124;2023-04-24T04:11:12;98675.63;;;11.07;72.48
79174;BME280;68599;49.142;9.124;2023-04-24T04:13:38;98693.11;;;11.12;73.46
79174;BME280;68599;49.142;9.124;2023-04-24T04:16:05;98698.84;;;11.02;74.82
79174;BME280;68599;49.142;9.124;2023-04-24T04:18:32;98704.24;;;10.86;75.43
79174;BME280;68599;49.142;9.124;2023-04-24T04:20:59;98700.10;;;10.64;76.15
79174;BME280;68599;49.142;9.124;2023-04-24T04:23:27;98704.80;;;10.47;75.93
79174;BME280;68599;49.142;9.124;2023-04-24T04:25:54;98709.07;;;10.26;76.35
79174;BME280;68599;49.142;9.124;2023-04-24T04:28:21;98711.93;;;10.20;76.24
79174;BME280;68599;49.142;9.124;2023-04-24T04:30:47;98706.61;;;10.11;76.28
79174;BME280;68599;49.142;9.124;2023-04-24T04:33:14;98700.17;;;9.98;77.13
79174;BME280;68599;49.142;9.124;2023-04-24T04:35:41;98709.60;;;9.96;77.30
79174;BME280;68599;49.142;9.124;2023-04-24T04:38:07;98716.86;;;9.93;77.33
79174;BME280;68599;49.142;9.124;2023-04-24T04:40:34;98724.13;;;9.84;77.32
79174;BME280;68599;49.142;9.124;2023-04-24T04:43:01;98730.23;;;9.78;77.22
79174;BME280;68599;49.142;9.124;2023-04-24T04:45:27;98732.67;;;9.70;78.00
79174;BME280;68599;49.142;9.124;2023-04-24T04:47:54;98733.94;;;9.69;77.93
79174;BME280;68599;49.142;9.124;2023-04-24T04:50:22;98733.83;;;9.66;77.71
79174;BME280;68599;49.142;9.124;2023-04-24T04:52:49;98734.73;;;9.67;77.56
79174;BME280;68599;49.142;9.124;2023-04-24T04:55:15;98738.86;;;9.60;78.39
79174;BME280;68599;49.142;9.124;2023-04-24T04:57:42;98745.91;;;9.65;77.89
79174;BME280;68599;49.142;9.124;2023-04-24T05:00:09;98750.92;;;9.66;77.48
79174;BME280;68599;49.142;9.124;2023-04-24T05:02:36;98753.64;;;9.58;77.93
79174;BME280;68599;49.142;9.124;2023-04-24T05:05:04;98757.94;;;9.59;77.51
79174;BME280;68599;49.142;9.124;2023-04-24T05:07:31;98756.24;;;9.62;77.68
79174;BME280;68599;49.142;9.124;2023-04-24T05:09:57;98762.14;;;9.57;78.42
79174;BME280;68599;49.142;9.124;2023-04-24T05:12:24;98760.13;;;9.52;77.76
79174;BME280;68599;49.142;9.124;2023-04-24T05:14:51;98767.24;;;9.48;77.79
79174;BME280;68599;49.142;9.124;2023-04-24T05:17:17;98779.63;;;9.49;78.73
79174;BME280;68599;49.142;9.124;2023-04-24T05:19:44;98782.07;;;9.51;78.51
79174;BME280;68599;49.142;9.124;2023-04-24T05:22:12;98784.36;;;9.53;78.46
79174;BME280;68599;49.142;9.124;2023-04-24T05:24:38;98791.33;;;9.56;78.12
79174;BME280;68599;49.142;9.124;2023-04-24T05:27:05;98797.39;;;9.57;78.10
79174;BME280;68599;49.142;9.124;2023-04-24T05:29:31;98803.94;;;9.61;78.28
79174;BME280;68599;49.142;9.124;2023-04-24T05:32:00;98805.71;;;9.69;78.31
79174;BME280;68599;49.142;9.124;2023-04-24T05:34:26;98810.91;;;9.76;77.78
79174;BME280;68599;49.142;9.124;2023-04-24T05:36:53;98808.98;;;9.87;77.65
79174;BME280;68599;49.142;9.124;2023-04-24T05:39:20;98812.73;;;10.02;77.41
79174;BME280;68599;49.142;9.124;2023-04-24T05:41:46;98816.77;;;10.19;77.27
79174;BME280;68599;49.142;9.124;2023-04-24T05:44:13;98818.01;;;10.44;76.43
79174;BME280;68599;49.142;9.124;2023-04-24T05:46:40;98815.08;;;10.63;75.08
79174;BME280;68599;49.142;9.124;2023-04-24T05:49:06;98817.30;;;10.79;74.69
79174;BME280;68599;49.142;9.124;2023-04-24T05:51:33;98818.60;;;10.95;73.64
79174;BME280;68599;49.142;9.124;2023-04-24T05:53:59;98823.54;;;11.04;73.06
79174;BME280;68599;49.142;9.124;2023-04-24T05:56:26;98829.76;;;11.12;71.34
79174;BME280;68599;49.142;9.124;2023-04-24T05:58:53;98828.35;;;11.17;71.17
79174;BME280;68599;49.142;9.124;2023-04-24T06:01:19;98830.64;;;11.24;71.13
79174;BME280;68599;49.142;9.124;2023-04-24T06:03:46;98837.23;;;11.32;70.69
79174;BME280;68599;49.142;9.124;2023-04-24T06:06:13;98844.15;;;11.51;69.97
79174;BME280;68599;49.142;9.124;2023-04-24T06:08:40;98840.91;;;11.51;70.25
79174;BME280;68599;49.142;9.124;2023-04-24T06:11:08;98846.73;;;11.72;69.61
79174;BME280;68599;49.142;9.124;2023-04-24T06:13:35;98841.89;;;11.65;68.74
79174;BME280;68599;49.142;9.124;2023-04-24T06:16:01;98843.80;;;11.67;68.46
79174;BME280;68599;49.142;9.124;2023-04-24T06:18:28;98839.67;;;11.66;68.21
79174;BME280;68599;49.142;9.124;2023-04-24T06:20:54;98842.90;;;11.88;67.79
79174;BME280;68599;49.142;9.124;2023-04-24T06:23:21;98842.02;;;12.13;66.58
79174;BME280;68599;49.142;9.124;2023-04-24T06:25:48;98843.73;;;12.16;65.89
79174;BME280;68599;49.142;9.124;2023-04-24T06:28:14;98834.21;;;12.09;66.16
79174;BME280;68599;49.142;9.124;2023-04-24T06:30:41;98837.14;;;12.23;66.03
79174;BME280;68599;49.142;9.124;2023-04-24T06:33:07;98836.95;;;12.23;65.62
79174;BME280;68599;49.142;9.124;2023-04-24T06:35:47;98840.80;;;12.56;65.37
79174;BME280;68599;49.142;9.124;2023-04-24T06:38:13;98835.08;;;12.77;64.57
79174;BME280;68599;49.142;9.124;2023-04-24T06:40:40;98836.70;;;12.82;63.82
79174;BME280;68599;49.142;9.124;2023-04-24T06:43:07;98839.04;;;12.97;63.09
79174;BME280;68599;49.142;9.124;2023-04-24T06:45:33;98835.17;;;12.98;62.91
79174;BME280;68599;49.142;9.124;2023-04-24T06:48:00;98836.90;;;13.00;62.83
79174;BME280;68599;49.142;9.124;2023-04-24T06:50:26;98836.94;;;12.99;62.51
79174;BME280;68599;49.142;9.124;2023-04-24T06:52:53;98828.18;;;13.15;61.64
79174;BME280;68599;49.142;9.124;2023-04-24T06:55:19;98831.52;;;13.36;61.57
79174;BME280;68599;49.142;9.124;2023-04-24T06:57:46;98828.65;;;13.73;60.25
79174;BME280;68599;49.142;9.124;2023-04-24T07:00:13;98836.70;;;13.76;58.76
79174;BME280;68599;49.142;9.124;2023-04-24T07:02:39;98839.18;;;13.51;59.17
79174;BME280;68599;49.142;9.124;2023-04-24T07:05:06;98834.36;;;13.37;57.11
79174;BME280;68599;49.142;9.124;2023-04-24T07:07:34;98844.02;;;13.12;58.05
79174;BME280;68599;49.142;9.124;2023-04-24T07:10:04;98839.23;;;13.05;58.35
79174;BME280;68599;49.142;9.124;2023-04-24T07:12:31;98837.62;;;13.04;57.62
79174;BME280;68599;49.142;9.124;2023-04-24T07:15:00;98840.67;;;12.96;57.32
79174;BME280;68599;49.142;9.124;2023-04-24T07:17:27;98838.66;;;13.15;56.20
79174;BME280;68599;49.142;9.124;2023-04-24T07:19:53;98835.55;;;13.21;56.57
79174;BME280;68599;49.142;9.124;2023-04-24T07:22:20;98835.77;;;13.47;56.30
79174;BME280;68599;49.142;9.124;2023-04-24T07:24:47;98839.02;;;13.68;55.93
79174;BME280;68599;49.142;9.124;2023-04-24T07:27:13;98844.11;;;13.67;54.67
79174;BME280;68599;49.142;9.124;2023-04-24T07:29:41;98839.64;;;13.83;54.36
79174;BME280;68599;49.142;9.124;2023-04-24T07:32:08;98838.97;;;13.82;52.93
79174;BME280;68599;49.142;9.124;2023-04-24T07:34:35;98844.02;;;13.74;53.14
79174;BME280;68599;49.142;9.124;2023-04-24T07:37:02;98845.41;;;13.83;53.11
79174;BME280;68599;49.142;9.124;2023-04-24T07:39:28;98850.65;;;13.84;53.37
79174;BME280;68599;49.142;9.124;2023-04-24T07:41:55;98857.79;;;13.86;52.87
79174;BME280;68599;49.142;9.124;2023-04-24T07:44:22;98854.34;;;13.78;52.36
79174;BME280;68599;49.142;9.124;2023-04-24T07:46:48;98863.45;;;13.89;52.65
79174;BME280;68599;49.142;9.124;2023-04-24T07:49:15;98862.91;;;13.89;51.87
79174;BME280;68599;49.142;9.124;2023-04-24T07:51:45;98871.48;;;13.75;51.56
79174;BME280;68599;49.142;9.124;2023-04-24T07:54:11;98873.30;;;13.71;50.68
79174;BME280;68599;49.142;9.124;2023-04-24T07:56:38;98881.92;;;13.50;51.87
79174;BME280;68599;49.142;9.124;2023-04-24T07:59:05;98884.33;;;13.45;52.55
79174;BME280;68599;49.142;9.124;2023-04-24T08:01:32;98888.14;;;13.40;52.60
79174;BME280;68599;49.142;9.124;2023-04-24T08:03:58;98898.04;;;13.37;51.34
79174;BME280;68599;49.142;9.124;2023-04-24T08:06:25;98898.30;;;13.35;51.80
79174;BME280;68599;49.142;9.124;2023-04-24T08:08:57;98900.14;;;13.39;50.91
79174;BME280;68599;49.142;9.124;2023-04-24T08:11:25;98904.53;;;13.43;51.04
79174;BME280;68599;49.142;9.124;2023-04-24T08:13:52;98902.14;;;13.65;50.81
79174;BME280;68599;49.142;9.124;2023-04-24T08:16:18;98915.94;;;13.82;50.20
79174;BME280;68599;49.142;9.124;2023-04-24T08:18:45;98913.98;;;13.81;49.70
79174;BME280;68599;49.142;9.124;2023-04-24T08:21:11;98915.23;;;13.85;49.44
79174;BME280;68599;49.142;9.124;2023-04-24T08:23:43;98924.08;;;13.64;50.06
79174;BME280;68599;49.142;9.124;2023-04-24T08:26:10;98922.06;;;13.69;50.25
79174;BME280;68599;49.142;9.124;2023-04-24T08:28:37;98917.09;;;13.67;50.29
79174;BME280;68599;49.142;9.124;2023-04-24T08:31:04;98922.66;;;13.68;50.03
79174;BME280;68599;49.142;9.124;2023-04-24T08:33:31;98925.86;;;13.70;50.10
79174;BME280;68599;49.142;9.124;2023-04-24T08:36:05;98920.58;;;13.79;50.05
79174;BME280;68599;49.142;9.124;2023-04-24T08:38:32;98919.33;;;13.65;50.53
79174;BME280;68599;49.142;9.124;2023-04-24T08:41:00;98922.80;;;13.51;50.78
79174;BME280;68599;49.142;9.124;2023-04-24T08:43:27;98934.92;;;13.51;51.23
79174;BME280;68599;49.142;9.124;2023-04-24T08:45:56;98947.48;;;13.27;51.82
79174;BME280;68599;49.142;9.124;2023-04-24T08:48:23;98959.81;;;12.97;51.41
79174;BME280;68599;49.142;9.124;2023-04-24T08:50:58;98961.63;;;12.97;52.08
79174;BME280;68599;49.142;9.124;2023-04-24T08:53:26;98965.68;;;13.09;52.06
79174;BME280;68599;49.142;9.124;2023-04-24T08:55:55;98954.45;;;13.33;51.62
79174;BME280;68599;49.142;9.124;2023-04-24T08:58:24;98952.61;;;13.35;51.31
79174;BME280;68599;49.142;9.124;2023-04-24T09:00:54;98953.05;;;13.68;50.37
79174;BME280;68599;49.142;9.124;2023-04-24T09:03:21;98952.42;;;13.97;49.31
79174;BME280;68599;49.142;9.124;2023-04-24T09:05:49;98962.44;;;14.17;48.97
79174;BME280;68599;49.142;9.124;2023-04-24T09:08:18;98964.62;;;14.21;47.87
79174;BME280;68599;49.142;9.124;2023-04-24T09:10:46;98964.38;;;14.01;46.89
79174;BME280;68599;49.142;9.124;2023-04-24T09:13:15;98956.00;;;14.15;46.75
79174;BME280;68599;49.142;9.124;2023-04-24T09:15:42;98962.95;;;14.48;46.25
79174;BME280;68599;49.142;9.124;2023-04-24T09:18:09;98962.71;;;14.98;45.57
79174;BME280;68599;49.142;9.124;2023-04-24T09:20:59;98968.34;;;15.52;44.49
79174;BME280;68599;49.142;9.124;2023-04-24T09:23:28;98963.40;;;15.52;43.76
79174;BME280;68599;49.142;9.124;2023-04-24T09:25:55;98963.92;;;15.45;44.39
79174;BME280;68599;49.142;9.124;2023-04-24T09:28:36;98967.73;;;15.34;45.04
79174;BME280;68599;49.142;9.124;2023-04-24T09:31:04;98971.80;;;14.85;44.21
79174;BME280;68599;49.142;9.124;2023-04-24T09:33:31;98971.23;;;14.74;44.50
79174;BME280;68599;49.142;9.124;2023-04-24T09:35:58;98973.80;;;15.32;43.85
79174;BME280;68599;49.142;9.124;2023-04-24T09:38:36;98973.23;;;15.75;43.09
79174;BME280;68599;49.142;9.124;2023-04-24T09:41:05;98971.27;;;15.59;42.44
79174;BME280;68599;49.142;9.124;2023-04-24T09:43:32;98983.98;;;15.20;43.51
79174;BME280;68599;49.142;9.124;2023-04-24T09:46:00;98991.13;;;15.15;43.76
79174;BME280;68599;49.142;9.124;2023-04-24T09:48:34;98989.55;;;15.21;44.26
79174;BME280;68599;49.142;9.124;2023-04-24T09:51:03;98990.92;;;15.58;43.60
79174;BME280;68599;49.142;9.124;2023-04-24T09:53:30;98989.14;;;15.95;41.81
79174;BME280;68599;49.142;9.124;2023-04-24T09:56:10;98995.40;;;16.26;41.27
79174;BME280;68599;49.142;9.124;2023-04-24T09:58:38;98988.65;;;16.87;40.65
79174;BME280;68599;49.142;9.124;2023-04-24T10:01:05;99001.41;;;16.93;39.47
79174;BME280;68599;49.142;9.124;2023-04-24T10:03:33;98993.98;;;16.99;39.02
79174;BME280;68599;49.142;9.124;2023-04-24T10:06:01;99005.39;;;16.22;40.10
79174;BME280;68599;49.142;9.124;2023-04-24T10:08:33;99012.74;;;15.46;42.24
79174;BME280;68599;49.142;9.124;2023-04-24T10:11:01;99017.71;;;14.93;43.56
79174;BME280;68599;49.142;9.124;2023-04-24T10:13:28;99015.70;;;14.35;44.99
79174;BME280;68599;49.142;9.124;2023-04-24T10:15:56;99027.92;;;13.97;45.91
79174;BME280;68599;49.142;9.124;2023-04-24T10:18:23;99024.48;;;13.76;46.75
79174;BME280;68599;49.142;9.124;2023-04-24T10:20:50;99034.11;;;13.42;48.00
79174;BME280;68599;49.142;9.124;2023-04-24T10:23:18;99030.10;;;13.38;48.50
79174;BME280;68599;49.142;9.124;2023-04-24T10:25:46;99041.32;;;13.52;48.45
79174;BME280;68599;49.142;9.124;2023-04-24T10:28:13;99034.92;;;13.86;47.79
79174;BME280;68599;49.142;9.124;2023-04-24T10:30:43;99035.52;;;14.15;47.22
79174;BME280;68599;49.142;9.124;2023-04-24T10:33:10;99030.61;;;14.38;46.79
79174;BME280;68599;49.142;9.124;2023-04-24T10:35:45;99034.79;;;14.47;45.76
79174;BME280;68599;49.142;9.124;2023-04-24T10:38:18;99026.15;;;14.91;44.12
79174;BME280;68599;49.142;9.124;2023-04-24T10:40:45;99027.39;;;15.00;43.95
79174;BME280;68599;49.142;9.124;2023-04-24T10:43:16;99025.73;;;15.52;42.86
79174;BME280;68599;49.142;9.124;2023-04-24T10:46:03;99019.42;;;15.93;41.87
79174;BME280;68599;49.142;9.124;2023-04-24T10:48:31;99024.02;;;16.32;40.20
79174;BME280;68599;49.142;9.124;2023-04-24T10:50:58;99022.13;;;16.44;38.80
79174;BME280;68599;49.142;9.124;2023-04-24T10:53:29;99028.23;;;16.67;39.18
79174;BME280;68599;49.142;9.124;2023-04-24T10:56:06;99023.89;;;17.42;37.73
79174;BME280;68599;49.142;9.124;2023-04-24T11:01:04;99016.96;;;18.63;35.29
79174;BME280;68599;49.142;9.124;2023-04-24T11:03:32;99012.05;;;18.13;35.19
79174;BME280;68599;49.142;9.124;2023-04-24T11:11:18;99027.67;;;16.53;38.56
79174;BME280;68599;49.142;9.124;2023-04-24T11:16:25;99042.13;;;17.01;38.88
79174;BME280;68599;49.142;9.124;2023-04-24T11:19:00;99046.40;;;16.53;39.73
79174;BME280;68599;49.142;9.124;2023-04-24T11:21:32;99050.56;;;16.06;40.80
79174;BME280;68599;49.142;9.124;2023-04-24T11:34:41;99088.98;;;13.10;53.74
79174;BME280;68599;49.142;9.124;2023-04-24T11:37:11;99096.84;;;13.04;54.87
79174;BME280;68599;49.142;9.124;2023-04-24T11:39:38;99095.48;;;13.56;54.50
79174;BME280;68599;49.142;9.124;2023-04-24T11:42:05;99085.55;;;14.76;52.18
79174;BME280;68599;49.142;9.124;2023-04-24T11:44:34;99081.92;;;14.94;51.86
79174;BME280;68599;49.142;9.124;2023-04-24T11:47:05;99079.02;;;14.97;51.09
79174;BME280;68599;49.142;9.124;2023-04-24T11:49:33;99074.05;;;14.99;50.07
79174;BME280;68599;49.142;9.124;2023-04-24T11:52:00;99075.77;;;15.42;48.08
79174;BME280;68599;49.142;9.124;2023-04-24T11:54:27;99065.02;;;16.79;43.96
79174;BME280;68599;49.142;9.124;2023-04-24T11:56:55;99056.17;;;19.26;38.63
79174;BME280;68599;49.142;9.124;2023-04-24T11:59:22;99059.02;;;20.46;35.79
79174;BME280;68599;49.142;9.124;2023-04-24T12:01:49;99060.67;;;21.30;33.40
79174;BME280;68599;49.142;9.124;2023-04-24T12:04:16;99067.89;;;20.92;33.01
79174;BME280;68599;49.142;9.124;2023-04-24T12:07:04;99068.52;;;20.72;34.06
79174;BME280;68599;49.142;9.124;2023-04-24T12:09:46;99066.11;;;22.69;30.96
79174;BME280;68599;49.142;9.124;2023-04-24T12:12:15;99072.27;;;23.94;28.96
79174;BME280;68599;49.142;9.124;2023-04-24T12:14:48;99075.73;;;25.34;26.33
79174;BME280;68599;49.142;9.124;2023-04-24T12:17:16;99082.45;;;23.00;28.31
79174;BME280;68599;49.142;9.124;2023-04-24T12:19:47;99085.28;;;23.02;28.70
79174;BME280;68599;49.142;9.124;2023-04-24T12:22:14;99084.23;;;23.81;28.06
79174;BME280;68599;49.142;9.124;2023-04-24T12:25:01;99093.83;;;23.83;27.99
79174;BME280;68599;49.142;9.124;2023-04-24T12:27:32;99102.08;;;22.00;30.57
79174;BME280;68599;49.142;9.124;2023-04-24T12:30:04;99097.88;;;20.44;32.26
79174;BME280;68599;49.142;9.124;2023-04-24T12:32:32;99093.17;;;21.98;29.91
79174;BME280;68599;49.142;9.124;2023-04-24T12:34:58;99091.32;;;23.54;28.35
79174;BME280;68599;49.142;9.124;2023-04-24T12:37:26;99078.25;;;24.83;26.02
79174;BME280;68599;49.142;9.124;2023-04-24T12:42:30;99083.52;;;25.78;24.86
79174;BME280;68599;49.142;9.124;2023-04-24T12:44:59;99081.45;;;24.89;25.24
79174;BME280;68599;49.142;9.124;2023-04-24T12:47:27;99090.86;;;23.99;26.25
79174;BME280;68599;49.142;9.124;2023-04-24T12:49:54;99091.57;;;24.07;26.44
79174;BME280;68599;49.142;9.124;2023-04-24T12:52:32;99088.15;;;24.79;26.15
79174;BME280;68599;49.142;9.124;2023-04-24T12:55:07;99088.30;;;23.43;27.40
79174;BME280;68599;49.142;9.124;2023-04-24T12:57:36;99085.20;;;24.08;26.81
79174;BME280;68599;49.142;9.124;2023-04-24T13:00:03;99082.15;;;25.06;24.99
79174;BME280;68599;49.142;9.124;2023-04-24T13:02:37;99078.31;;;23.49;26.95
79174;BME280;68599;49.142;9.124;2023-04-24T13:05:05;99077.02;;;24.64;26.25
79174;BME280;68599;49.142;9.124;2023-04-24T13:07:32;99065.17;;;26.05;24.90
79174;BME280;68599;49.142;9.124;2023-04-24T13:09:59;99075.33;;;23.64;27.12
79174;BME280;68599;49.142;9.124;2023-04-24T13:12:25;99083.22;;;21.54;29.29
79174;BME280;68599;49.142;9.124;2023-04-24T13:14:53;99089.23;;;19.94;32.09
79174;BME280;68599;49.142;9.124;2023-04-24T13:17:24;99096.94;;;18.37;35.31
79174;BME280;68599;49.142;9.124;2023-04-24T13:19:51;99102.17;;;17.89;36.72
79174;BME280;68599;49.142;9.124;2023-04-24T13:22:18;99100.15;;;17.32;38.13
79174;BME280;68599;49.142;9.124;2023-04-24T13:24:47;99089.95;;;17.22;38.20
79174;BME280;68599;49.142;9.124;2023-04-24T13:27:18;99086.14;;;18.15;36.92